createdAt,value
2023-05-23T00:00:54.944Z,23.07
2023-05-23T00:03:41.415Z,14.17
2023-05-23T00:06:27.964Z,11.23
2023-05-23T00:09:16.077Z,7.93
2023-05-23T00:12:02.578Z,5.43
2023-05-23T00:14:49.674Z,4.87
2023-05-23T00:17:37.203Z,6.37
2023-05-23T00:20:23.468Z,7.47
2023-05-23T00:23:10.269Z,7.90
2023-05-23T00:25:58.659Z,7.67
2023-05-23T00:28:45.163Z,7.50
2023-05-23T00:31:31.955Z,7.77
2023-05-23T00:34:18.754Z,7.23
2023-05-23T00:37:06.298Z,7.60
2023-05-23T00:39:53.007Z,7.30
2023-05-23T00:42:41.062Z,7.80
2023-05-23T00:45:27.676Z,8.87
2023-05-23T00:48:14.517Z,10.23
2023-05-23T00:51:00.892Z,10.70
2023-05-23T00:53:47.483Z,7.97
2023-05-23T00:56:33.921Z,7.40
2023-05-23T00:59:22.699Z,7.10
2023-05-23T01:02:10.100Z,7.83
2023-05-23T01:04:56.818Z,7.63
2023-05-23T01:07:43.459Z,6.87
2023-05-23T01:13:41.402Z,7.47
2023-05-23T01:16:34.367Z,7.00
2023-05-23T01:19:37.330Z,7.60
2023-05-23T01:22:27.533Z,8.37
2023-05-23T01:25:23.159Z,6.80
2023-05-23T01:28:13.770Z,7.33
2023-05-23T01:31:01.911Z,8.13
2023-05-23T01:33:51.433Z,8.43
2023-05-23T01:36:40.980Z,8.37
2023-05-23T01:39:27.240Z,7.90
2023-05-23T01:42:14.142Z,8.00
2023-05-23T01:45:02.444Z,8.23
2023-05-23T01:47:50.502Z,8.30
2023-05-23T01:50:38.298Z,8.97
2023-05-23T01:53:25.722Z,9.23
2023-05-23T01:56:12.604Z,9.73
2023-05-23T01:58:59.335Z,10.80
2023-05-23T02:01:47.337Z,10.07
2023-05-23T02:04:33.919Z,8.70
2023-05-23T02:07:23.257Z,12.20
2023-05-23T02:10:10.639Z,10.67
2023-05-23T02:12:57.285Z,10.07
2023-05-23T02:15:44.103Z,11.73
2023-05-23T02:18:32.190Z,12.43
2023-05-23T02:21:19.171Z,10.97
2023-05-23T02:24:05.911Z,10.10
2023-05-23T02:26:53.025Z,10.83
2023-05-23T02:29:39.567Z,13.97
2023-05-23T02:32:26.309Z,15.00
2023-05-23T02:35:14.533Z,10.30
2023-05-23T02:38:01.384Z,8.33
2023-05-23T02:40:47.730Z,8.67
2023-05-23T02:43:34.294Z,8.53
2023-05-23T02:46:20.871Z,8.47
2023-05-23T02:49:07.293Z,9.87
2023-05-23T02:51:54.986Z,8.90
2023-05-23T02:54:41.325Z,8.67
2023-05-23T02:57:27.718Z,8.90
2023-05-23T03:00:15.766Z,10.50
2023-05-23T03:03:02.817Z,9.50
2023-05-23T03:05:49.506Z,10.23
2023-05-23T03:08:37.449Z,9.23
2023-05-23T03:11:24.016Z,10.00
2023-05-23T03:14:10.625Z,9.27
2023-05-23T03:16:57.115Z,14.83
2023-05-23T03:19:43.554Z,17.63
2023-05-23T03:22:29.985Z,12.27
2023-05-23T03:25:17.736Z,10.47
2023-05-23T03:28:04.063Z,9.77
2023-05-23T03:30:50.515Z,9.37
2023-05-23T03:33:38.335Z,9.40
2023-05-23T03:36:28.446Z,8.33
2023-05-23T03:39:16.510Z,14.07
2023-05-23T03:42:04.080Z,13.30
2023-05-23T03:44:50.345Z,13.77
2023-05-23T03:47:36.724Z,10.00
2023-05-23T03:50:23.288Z,10.13
2023-05-23T03:53:09.680Z,9.67
2023-05-23T03:55:56.375Z,10.40
2023-05-23T03:58:44.276Z,10.63
2023-05-23T04:01:30.588Z,10.30
2023-05-23T04:04:18.332Z,10.70
2023-05-23T04:07:05.692Z,11.50
2023-05-23T04:09:52.391Z,11.77
2023-05-23T04:12:41.666Z,11.50
2023-05-23T04:15:29.614Z,10.57
2023-05-23T04:18:17.472Z,10.90
2023-05-23T04:21:03.894Z,10.73
2023-05-23T04:23:50.586Z,13.03
2023-05-23T04:26:37.402Z,14.40
2023-05-23T04:29:25.152Z,13.10
2023-05-23T04:32:12.934Z,10.20
2023-05-23T04:35:02.255Z,10.73
2023-05-23T04:37:49.053Z,11.07
2023-05-23T04:40:35.641Z,9.83
2023-05-23T04:44:10.613Z,57.27
2023-05-23T04:46:57.815Z,14.83
2023-05-23T04:49:45.701Z,19.00
2023-05-23T04:52:33.432Z,13.57
2023-05-23T04:55:20.252Z,12.53
2023-05-23T04:58:08.049Z,14.70
2023-05-23T05:00:54.711Z,16.00
2023-05-23T05:03:41.272Z,13.40
2023-05-23T05:06:29.020Z,12.13
2023-05-23T05:09:15.929Z,12.03
2023-05-23T05:12:02.621Z,11.17
2023-05-23T05:14:49.058Z,10.70
2023-05-23T05:17:37.352Z,11.50
2023-05-23T05:20:23.756Z,12.67
2023-05-23T05:23:11.885Z,16.27
2023-05-23T05:25:58.520Z,11.87
2023-05-23T05:28:44.739Z,11.97
2023-05-23T05:31:31.561Z,13.17
2023-05-23T05:34:18.484Z,12.90
2023-05-23T05:37:05.290Z,12.63
2023-05-23T05:39:54.207Z,12.87
2023-05-23T05:42:40.833Z,13.50
2023-05-23T05:45:27.626Z,13.33
2023-05-23T05:48:14.015Z,13.43
2023-05-23T05:51:03.243Z,13.20
2023-05-23T05:53:50.690Z,14.73
2023-05-23T05:56:38.689Z,12.80
2023-05-23T05:59:25.220Z,12.60
2023-05-23T06:02:11.979Z,12.87
2023-05-23T06:04:58.660Z,12.77
2023-05-23T06:07:45.421Z,12.40
2023-05-23T06:10:31.830Z,11.50
2023-05-23T06:13:20.062Z,12.27
2023-05-23T06:16:07.370Z,12.07
2023-05-23T06:18:54.278Z,12.27
2023-05-23T06:21:47.875Z,12.37
2023-05-23T06:24:34.291Z,13.57
2023-05-23T06:27:20.733Z,12.10
2023-05-23T06:30:11.096Z,11.37
2023-05-23T06:36:35.309Z,10.77
2023-05-23T06:39:24.162Z,10.23
2023-05-23T06:42:11.657Z,9.77
2023-05-23T06:45:01.988Z,10.00
2023-05-23T06:47:51.447Z,10.43
2023-05-23T06:50:41.126Z,10.10
2023-05-23T06:53:29.890Z,8.47
2023-05-23T06:56:19.745Z,7.60
2023-05-23T06:59:06.605Z,10.63
2023-05-23T07:01:52.926Z,10.17
2023-05-23T07:04:41.250Z,8.57
2023-05-23T07:07:30.879Z,8.30
2023-05-23T07:10:19.865Z,8.17
2023-05-23T07:13:06.457Z,7.20
2023-05-23T07:15:52.838Z,7.73
2023-05-23T07:18:39.190Z,6.00
2023-05-23T07:21:28.339Z,4.30
2023-05-23T07:24:15.540Z,4.83
2023-05-23T07:27:02.027Z,4.80
2023-05-23T07:29:48.409Z,5.20
2023-05-23T07:32:34.886Z,5.00
2023-05-23T07:35:26.196Z,4.37
2023-05-23T07:38:13.931Z,4.47
2023-05-23T07:41:10.888Z,4.23
2023-05-23T07:43:58.196Z,4.20
2023-05-23T07:46:44.429Z,4.27
2023-05-23T07:49:30.820Z,4.20
2023-05-23T07:52:17.266Z,4.53
2023-05-23T07:55:05.042Z,4.57
2023-05-23T07:57:52.717Z,3.90
2023-05-23T08:00:39.345Z,3.80
2023-05-23T08:03:26.186Z,3.93
2023-05-23T08:06:12.541Z,3.57
2023-05-23T08:08:59.096Z,3.43
2023-05-23T08:11:46.817Z,4.20
2023-05-23T08:14:49.147Z,3.83
2023-05-23T08:17:37.829Z,3.90
2023-05-23T08:20:30.794Z,4.30
2023-05-23T08:23:18.069Z,3.63
2023-05-23T08:26:04.236Z,3.53
2023-05-23T08:28:52.560Z,3.27
2023-05-23T08:31:39.024Z,3.63
2023-05-23T08:34:25.626Z,3.70
2023-05-23T08:37:12.313Z,4.03
2023-05-23T08:39:58.830Z,3.50
2023-05-23T08:42:45.538Z,3.90
2023-05-23T08:45:34.995Z,3.37
2023-05-23T08:48:21.774Z,3.60
2023-05-23T08:51:11.868Z,3.57
2023-05-23T08:53:58.497Z,4.07
2023-05-23T08:56:48.552Z,3.37
2023-05-23T08:59:35.176Z,5.27
2023-05-23T09:02:23.717Z,3.90
2023-05-23T09:05:10.939Z,4.30
2023-05-23T09:07:57.468Z,3.67
2023-05-23T09:10:44.144Z,3.60
2023-05-23T09:13:32.096Z,3.80
2023-05-23T09:16:19.039Z,3.30
2023-05-23T09:19:13.013Z,3.40
2023-05-23T09:21:59.306Z,2.90
2023-05-23T09:24:45.754Z,3.73
2023-05-23T09:27:32.584Z,3.60
2023-05-23T09:30:19.035Z,3.83
2023-05-23T09:33:06.246Z,3.53
2023-05-23T09:35:55.258Z,2.80
2023-05-23T09:38:42.840Z,3.17
2023-05-23T09:41:31.379Z,3.20
2023-05-23T09:44:24.167Z,3.53
2023-05-23T09:47:11.014Z,3.67
2023-05-23T09:49:57.757Z,3.77
2023-05-23T09:52:46.539Z,3.77
2023-05-23T09:55:33.042Z,3.83
2023-05-23T09:58:21.156Z,3.73
2023-05-23T10:01:08.602Z,3.73
2023-05-23T10:03:59.871Z,3.90
2023-05-23T10:06:52.122Z,3.80
2023-05-23T10:09:41.703Z,3.37
2023-05-23T10:12:46.346Z,3.83
2023-05-23T10:15:37.098Z,4.13
2023-05-23T10:18:27.854Z,3.17
2023-05-23T10:21:16.046Z,3.13
2023-05-23T10:24:02.387Z,3.00
2023-05-23T10:26:50.505Z,3.00
2023-05-23T10:29:37.203Z,3.57
2023-05-23T10:32:25.310Z,3.67
2023-05-23T10:35:16.200Z,4.17
2023-05-23T10:38:04.393Z,3.50
2023-05-23T10:40:54.936Z,3.47
2023-05-23T10:43:45.927Z,4.13
2023-05-23T10:46:47.064Z,3.73
2023-05-23T10:49:40.349Z,3.60
2023-05-23T10:52:27.728Z,3.83
2023-05-23T10:55:15.207Z,3.80
2023-05-23T10:58:11.247Z,3.83
2023-05-23T11:01:01.651Z,3.80
2023-05-23T11:03:54.599Z,3.57
2023-05-23T11:06:44.665Z,4.37
2023-05-23T11:09:31.066Z,4.53
2023-05-23T11:12:37.270Z,5.07
2023-05-23T11:15:24.056Z,4.57
2023-05-23T11:18:12.746Z,4.43
2023-05-23T11:20:59.879Z,3.97
2023-05-23T11:23:46.646Z,4.47
2023-05-23T11:26:33.787Z,4.33
2023-05-23T11:29:20.517Z,4.33
2023-05-23T11:32:16.277Z,4.03
2023-05-23T11:35:06.504Z,3.90
2023-05-23T11:37:52.991Z,3.63
2023-05-23T11:40:40.754Z,4.00
2023-05-23T11:43:27.686Z,3.90
2023-05-23T11:46:14.010Z,4.17
2023-05-23T11:49:00.436Z,3.80
2023-05-23T11:51:48.564Z,3.23
2023-05-23T11:54:34.899Z,3.33
2023-05-23T11:57:21.374Z,3.50
2023-05-23T12:00:09.053Z,3.30
2023-05-23T12:02:55.509Z,3.80
2023-05-23T12:05:44.286Z,3.30
2023-05-23T12:08:32.155Z,3.47
2023-05-23T12:11:18.950Z,3.50
2023-05-23T12:14:06.729Z,2.97
2023-05-23T12:16:53.846Z,3.33
2023-05-23T12:19:40.361Z,3.20
2023-05-23T12:22:26.972Z,3.90
2023-05-23T12:25:14.975Z,4.63
2023-05-23T12:28:01.612Z,5.13
2023-05-23T12:30:48.744Z,4.83
2023-05-23T12:33:38.991Z,5.10
2023-05-23T12:36:26.188Z,8.90
2023-05-23T12:39:13.413Z,8.43
2023-05-23T12:42:09.976Z,6.17
2023-05-23T12:44:56.573Z,5.60
2023-05-23T12:47:43.133Z,4.67
2023-05-23T12:50:29.742Z,5.17
2023-05-23T12:53:16.220Z,4.20
2023-05-23T12:56:02.840Z,4.97
2023-05-23T12:58:51.425Z,5.00
2023-05-23T13:01:38.015Z,4.50
2023-05-23T13:04:24.535Z,6.27
2023-05-23T13:07:11.264Z,6.07
2023-05-23T13:09:57.906Z,5.20
2023-05-23T13:12:44.852Z,4.60
2023-05-23T13:15:32.912Z,5.67
2023-05-23T13:18:19.636Z,5.80
2023-05-23T13:21:06.538Z,4.83
2023-05-23T13:23:52.828Z,4.53
2023-05-23T13:26:39.432Z,4.37
2023-05-23T13:29:25.879Z,10.97
2023-05-23T13:32:13.909Z,3.70
2023-05-23T13:35:00.426Z,3.47
2023-05-23T13:37:46.824Z,5.03
2023-05-23T13:40:33.505Z,3.67
2023-05-23T13:43:20.332Z,4.77
2023-05-23T13:46:06.952Z,6.17
2023-05-23T13:48:54.959Z,3.93
2023-05-23T13:51:43.367Z,5.60
2023-05-23T13:54:29.765Z,7.17
2023-05-23T13:57:16.251Z,3.53
2023-05-23T14:00:03.660Z,3.70
2023-05-23T14:02:50.371Z,4.60
2023-05-23T14:05:38.253Z,5.73
2023-05-23T14:08:24.352Z,4.23
2023-05-23T14:11:11.346Z,2.93
2023-05-23T14:14:00.511Z,3.27
2023-05-23T14:16:47.252Z,3.43
2023-05-23T14:19:34.412Z,3.40
2023-05-23T14:22:22.484Z,3.43
2023-05-23T14:25:11.869Z,3.77
2023-05-23T14:27:58.412Z,3.17
2023-05-23T14:30:44.729Z,3.17
2023-05-23T14:33:31.194Z,3.20
2023-05-23T14:36:17.911Z,3.70
2023-05-23T14:39:08.444Z,3.30
2023-05-23T14:41:57.028Z,3.53
2023-05-23T14:44:43.714Z,3.03
2023-05-23T14:47:30.855Z,2.80
2023-05-23T14:50:17.704Z,2.40
2023-05-23T14:53:04.407Z,2.50
2023-05-23T14:55:52.289Z,2.80
2023-05-23T14:58:40.263Z,2.70
2023-05-23T15:01:27.020Z,3.10
2023-05-23T15:04:14.441Z,2.90
2023-05-23T15:07:00.951Z,2.80
2023-05-23T15:09:48.399Z,3.00
2023-05-23T15:12:36.163Z,2.87
2023-05-23T15:15:23.586Z,2.90
2023-05-23T15:18:11.884Z,3.53
2023-05-23T15:20:58.630Z,3.00
2023-05-23T15:23:44.875Z,2.73
2023-05-23T15:26:31.301Z,2.63
2023-05-23T15:29:19.249Z,2.93
2023-05-23T15:32:06.239Z,3.00
2023-05-23T15:34:52.594Z,2.50
2023-05-23T15:37:39.006Z,2.70
2023-05-23T15:40:25.994Z,2.50
2023-05-23T15:43:12.377Z,3.03
2023-05-23T15:46:00.619Z,2.57
2023-05-23T15:48:47.283Z,2.80
2023-05-23T15:51:33.990Z,3.87
2023-05-23T15:54:20.410Z,7.17
2023-05-23T15:57:07.042Z,3.20
2023-05-23T15:59:53.617Z,2.90
2023-05-23T16:02:41.325Z,3.33
2023-05-23T16:05:27.788Z,4.23
2023-05-23T16:08:14.187Z,3.23
2023-05-23T16:11:00.915Z,4.10
2023-05-23T16:13:47.280Z,6.40
2023-05-23T16:16:33.691Z,3.43
2023-05-23T16:19:22.032Z,3.40
2023-05-23T16:22:08.438Z,3.47
2023-05-23T16:24:55.683Z,2.90
2023-05-23T16:27:42.021Z,3.13
2023-05-23T16:30:28.544Z,3.43
2023-05-23T16:33:15.330Z,3.40
2023-05-23T16:36:03.240Z,4.17
2023-05-23T16:38:49.686Z,3.60
2023-05-23T16:41:36.207Z,3.33
2023-05-23T16:44:22.459Z,4.23
2023-05-23T16:47:10.211Z,4.83
2023-05-23T16:49:56.827Z,3.77
2023-05-23T16:52:44.941Z,3.80
2023-05-23T16:55:31.597Z,3.87
2023-05-23T16:58:20.707Z,3.73
2023-05-23T17:01:08.158Z,3.53
2023-05-23T17:03:54.848Z,13.37
2023-05-23T17:06:41.303Z,12.47
2023-05-23T17:09:29.594Z,8.87
2023-05-23T17:12:16.256Z,7.00
2023-05-23T17:15:04.017Z,5.57
2023-05-23T17:17:50.511Z,4.50
2023-05-23T17:20:36.817Z,4.87
2023-05-23T17:23:23.969Z,3.80
2023-05-23T17:26:11.963Z,3.67
2023-05-23T17:28:58.082Z,3.50
2023-05-23T17:31:44.606Z,4.13
2023-05-23T17:34:31.152Z,7.47
2023-05-23T17:37:17.496Z,6.57
2023-05-23T17:40:04.040Z,4.80
2023-05-23T17:42:52.053Z,5.73
2023-05-23T17:45:38.383Z,5.63
2023-05-23T17:48:38.251Z,5.37
2023-05-23T17:51:32.418Z,6.20
2023-05-23T17:54:19.083Z,5.70
2023-05-23T17:57:05.347Z,4.97
2023-05-23T17:59:53.324Z,6.40
2023-05-23T18:02:40.127Z,5.33
2023-05-23T18:05:29.190Z,5.23
2023-05-23T18:08:15.777Z,5.03
2023-05-23T18:11:02.702Z,5.43
2023-05-23T18:13:48.966Z,5.23
2023-05-23T18:16:37.321Z,5.53
2023-05-23T18:19:24.057Z,5.10
2023-05-23T18:22:10.972Z,5.63
2023-05-23T18:24:57.410Z,6.13
2023-05-23T18:27:43.816Z,6.20
2023-05-23T18:30:30.348Z,6.00
2023-05-23T18:33:18.368Z,6.33
2023-05-23T18:36:05.253Z,7.27
2023-05-23T18:38:52.157Z,6.67
2023-05-23T18:41:38.352Z,6.10
2023-05-23T18:44:24.779Z,5.67
2023-05-23T18:47:11.741Z,5.50
2023-05-23T18:49:59.919Z,6.60
2023-05-23T18:52:46.012Z,6.43
2023-05-23T18:55:32.602Z,6.40
2023-05-23T18:58:19.022Z,6.77
2023-05-23T19:01:06.977Z,8.10
2023-05-23T19:03:53.940Z,5.50
2023-05-23T19:06:42.117Z,5.67
2023-05-23T19:09:28.390Z,5.90
2023-05-23T19:12:14.837Z,6.27
2023-05-23T19:15:03.694Z,5.97
2023-05-23T19:17:50.513Z,5.80
2023-05-23T19:20:37.228Z,6.17
2023-05-23T19:23:25.317Z,5.87
2023-05-23T19:26:13.447Z,4.90
2023-05-23T19:29:00.022Z,6.07
2023-05-23T19:31:46.649Z,6.10
2023-05-23T19:34:33.053Z,6.30
2023-05-23T19:37:19.450Z,6.07
2023-05-23T19:40:08.759Z,6.23
2023-05-23T19:42:55.824Z,5.93
2023-05-23T19:45:42.079Z,5.67
2023-05-23T19:48:28.577Z,5.70
2023-05-23T19:51:17.200Z,5.43
2023-05-23T19:54:04.026Z,5.80
2023-05-23T19:56:51.910Z,5.73
2023-05-23T19:59:38.499Z,6.00
2023-05-23T20:02:25.324Z,5.13
2023-05-23T20:05:11.570Z,6.10
2023-05-23T20:07:58.075Z,6.90
2023-05-23T20:10:45.401Z,7.63
2023-05-23T20:13:39.225Z,6.60
2023-05-23T20:16:25.984Z,6.83
2023-05-23T20:19:12.363Z,6.57
2023-05-23T20:21:59.513Z,6.70
2023-05-23T20:24:46.820Z,7.03
2023-05-23T20:27:33.446Z,8.03
2023-05-23T20:30:21.439Z,8.03
2023-05-23T20:33:07.973Z,7.30
2023-05-23T20:35:54.506Z,9.57
2023-05-23T20:38:41.800Z,8.87
2023-05-23T20:41:29.704Z,6.30
2023-05-23T20:44:17.258Z,5.77
2023-05-23T20:47:05.772Z,5.57
2023-05-23T20:49:52.183Z,4.70
2023-05-23T20:52:39.217Z,5.20
2023-05-23T20:55:27.719Z,5.40
2023-05-23T20:58:16.472Z,6.67
2023-05-23T21:01:02.929Z,6.80
2023-05-23T21:03:50.681Z,5.90
2023-05-23T21:06:37.172Z,5.40
2023-05-23T21:09:23.548Z,6.20
2023-05-23T21:12:09.970Z,5.63
2023-05-23T21:14:57.639Z,5.63
2023-05-23T21:17:44.410Z,6.63
2023-05-23T21:20:32.149Z,7.13
2023-05-23T21:23:18.713Z,6.53
2023-05-23T21:26:05.152Z,6.03
2023-05-23T21:28:51.814Z,5.53
2023-05-23T21:31:41.759Z,5.63
2023-05-23T21:34:28.669Z,5.73
2023-05-23T21:37:16.808Z,5.23
2023-05-23T21:40:03.492Z,6.17
2023-05-23T21:42:50.037Z,6.50
2023-05-23T21:45:36.523Z,6.03
2023-05-23T21:48:23.161Z,6.00
2023-05-23T21:51:09.452Z,6.60
2023-05-23T21:53:57.278Z,6.23
2023-05-23T21:56:43.760Z,6.63
2023-05-23T21:59:30.125Z,5.67
2023-05-23T22:02:17.286Z,7.60
2023-05-23T22:05:03.812Z,7.20
2023-05-23T22:07:50.555Z,5.53
2023-05-23T22:10:40.543Z,6.00
2023-05-23T22:13:27.406Z,6.27
2023-05-23T22:16:14.137Z,6.00
2023-05-23T22:19:00.717Z,6.63
2023-05-23T22:21:47.248Z,6.03
2023-05-23T22:24:33.678Z,5.83
2023-05-23T22:27:21.492Z,5.83
2023-05-23T22:30:08.755Z,6.23
2023-05-23T22:32:55.337Z,5.83
2023-05-23T22:35:42.111Z,7.60
2023-05-23T22:38:28.772Z,9.93
2023-05-23T22:44:28.055Z,6.07
2023-05-23T22:47:17.138Z,6.40
2023-05-23T22:50:03.967Z,6.30
2023-05-23T22:52:50.754Z,6.33
2023-05-23T22:55:37.227Z,6.63
2023-05-23T22:58:23.542Z,6.50
2023-05-23T23:01:11.743Z,6.10
2023-05-23T23:03:58.350Z,7.73
2023-05-23T23:06:44.932Z,6.47
2023-05-23T23:09:31.326Z,6.37
2023-05-23T23:12:18.145Z,6.83
2023-05-23T23:15:04.933Z,6.60
2023-05-23T23:17:52.969Z,5.63
2023-05-23T23:20:39.420Z,6.27
2023-05-23T23:23:26.349Z,6.30
2023-05-23T23:26:12.702Z,6.20
2023-05-23T23:28:59.286Z,6.63
2023-05-23T23:31:45.671Z,6.33
2023-05-23T23:34:33.326Z,6.80
2023-05-23T23:37:20.122Z,6.27
2023-05-23T23:40:08.412Z,5.70
2023-05-23T23:42:54.976Z,5.83
2023-05-23T23:45:41.448Z,6.00
2023-05-23T23:48:27.904Z,6.20
2023-05-23T23:51:15.708Z,5.53
2023-05-23T23:54:02.113Z,5.60
2023-05-23T23:56:48.493Z,5.77
2023-05-23T23:59:34.834Z,5.67
